sensor_id;sensor_type;location;lat;lon;timestamp;temperature;humidity
74968;SHT30;63523;51.880;12.630;2023-07-29T00:00:38;17.22;84.78
74968;SHT30;63523;51.880;12.630;2023-07-29T00:03:04;17.18;85.22
74968;SHT30;63523;51.880;12.630;2023-07-29T00:05:30;17.17;85.53
74968;SHT30;63523;51.880;12.630;2023-07-29T00:07:55;17.15;85.53
74968;SHT30;63523;51.880;12.630;2023-07-29T00:10:20;17.17;85.31
74968;SHT30;63523;51.880;12.630;2023-07-29T00:12:45;17.12;84.84
74968;SHT30;63523;51.880;12.630;2023-07-29T00:15:11;17.11;84.39
74968;SHT30;63523;51.880;12.630;2023-07-29T00:17:36;16.99;84.26
74968;SHT30;63523;51.880;12.630;2023-07-29T00:20:02;16.88;84.59
74968;SHT30;63523;51.880;12.630;2023-07-29T00:22:27;16.83;84.66
74968;SHT30;63523;51.880;12.630;2023-07-29T00:24:53;16.77;85.12
74968;SHT30;63523;51.880;12.630;2023-07-29T00:27:20;16.77;85.48
74968;SHT30;63523;51.880;12.630;2023-07-29T00:29:45;16.79;86.08
74968;SHT30;63523;51.880;12.630;2023-07-29T00:32:11;16.79;86.05
74968;SHT30;63523;51.880;12.630;2023-07-29T00:34:36;16.76;85.96
74968;SHT30;63523;51.880;12.630;2023-07-29T00:37:01;16.73;85.68
74968;SHT30;63523;51.880;12.630;2023-07-29T00:39:26;16.67;85.46
74968;SHT30;63523;51.880;12.630;2023-07-29T00:41:52;16.66;85.63
74968;SHT30;63523;51.880;12.630;2023-07-29T00:44:17;16.66;85.83
74968;SHT30;63523;51.880;12.630;2023-07-29T00:46:43;16.65;85.94
74968;SHT30;63523;51.880;12.630;2023-07-29T00:49:10;16.63;86.26
74968;SHT30;63523;51.880;12.630;2023-07-29T00:51:36;16.62;86.07
74968;SHT30;63523;51.880;12.630;2023-07-29T00:54:02;16.60;85.81
74968;SHT30;63523;51.880;12.630;2023-07-29T00:56:27;16.59;85.33
74968;SHT30;63523;51.880;12.630;2023-07-29T00:58:52;16.52;85.07
74968;SHT30;63523;51.880;12.630;2023-07-29T01:01:24;16.44;85.47
74968;SHT30;63523;51.880;12.630;2023-07-29T01:03:49;16.48;85.94
74968;SHT30;63523;51.880;12.630;2023-07-29T01:11:55;16.69;86.30
74968;SHT30;63523;51.880;12.630;2023-07-29T01:14:38;16.74;86.75
74968;SHT30;63523;51.880;12.630;2023-07-29T01:17:07;16.79;86.74
74968;SHT30;63523;51.880;12.630;2023-07-29T01:20:07;16.81;86.67
74968;SHT30;63523;51.880;12.630;2023-07-29T01:22:34;16.88;86.90
74968;SHT30;63523;51.880;12.630;2023-07-29T01:25:00;16.88;86.81
74968;SHT30;63523;51.880;12.630;2023-07-29T01:27:25;16.95;86.91
74968;SHT30;63523;51.880;12.630;2023-07-29T01:29:52;17.03;87.03
74968;SHT30;63523;51.880;12.630;2023-07-29T01:32:25;17.10;87.04
74968;SHT30;63523;51.880;12.630;2023-07-29T01:34:59;17.18;87.08
74968;SHT30;63523;51.880;12.630;2023-07-29T01:37:27;17.24;87.07
74968;SHT30;63523;51.880;12.630;2023-07-29T01:39:56;17.28;86.87
74968;SHT30;63523;51.880;12.630;2023-07-29T01:42:23;17.32;86.79
74968;SHT30;63523;51.880;12.630;2023-07-29T01:44:48;17.36;86.51
74968;SHT30;63523;51.880;12.630;2023-07-29T01:47:14;17.40;86.45
74968;SHT30;63523;51.880;12.630;2023-07-29T01:49:39;17.43;86.17
74968;SHT30;63523;51.880;12.630;2023-07-29T01:52:05;17.45;86.01
74968;SHT30;63523;51.880;12.630;2023-07-29T01:54:31;17.47;86.22
74968;SHT30;63523;51.880;12.630;2023-07-29T01:56:56;17.52;86.21
74968;SHT30;63523;51.880;12.630;2023-07-29T01:59:21;17.53;86.23
74968;SHT30;63523;51.880;12.630;2023-07-29T02:01:47;17.57;86.22
74968;SHT30;63523;51.880;12.630;2023-07-29T02:04:12;17.59;86.20
74968;SHT30;63523;51.880;12.630;2023-07-29T02:06:38;17.65;86.09
74968;SHT30;63523;51.880;12.630;2023-07-29T02:09:03;17.69;86.07
74968;SHT30;63523;51.880;12.630;2023-07-29T02:11:30;17.74;86.09
74968;SHT30;63523;51.880;12.630;2023-07-29T02:13:55;17.79;86.16
74968;SHT30;63523;51.880;12.630;2023-07-29T02:16:21;17.84;86.23
74968;SHT30;63523;51.880;12.630;2023-07-29T02:18:47;17.83;86.08
74968;SHT30;63523;51.880;12.630;2023-07-29T02:21:14;17.87;86.05
74968;SHT30;63523;51.880;12.630;2023-07-29T02:23:39;17.87;86.09
74968;SHT30;63523;51.880;12.630;2023-07-29T02:26:05;17.89;86.19
74968;SHT30;63523;51.880;12.630;2023-07-29T02:28:30;17.97;86.21
74968;SHT30;63523;51.880;12.630;2023-07-29T02:33:42;18.01;86.36
74968;SHT30;63523;51.880;12.630;2023-07-29T02:36:07;18.05;86.47
74968;SHT30;63523;51.880;12.630;2023-07-29T02:38:33;18.08;86.45
74968;SHT30;63523;51.880;12.630;2023-07-29T02:40:58;18.08;86.34
74968;SHT30;63523;51.880;12.630;2023-07-29T02:43:23;18.04;86.23
74968;SHT30;63523;51.880;12.630;2023-07-29T02:45:49;18.07;86.33
74968;SHT30;63523;51.880;12.630;2023-07-29T02:48:14;18.05;86.27
74968;SHT30;63523;51.880;12.630;2023-07-29T02:50:39;18.08;86.36
74968;SHT30;63523;51.880;12.630;2023-07-29T02:53:04;18.10;86.27
74968;SHT30;63523;51.880;12.630;2023-07-29T02:55:30;18.12;86.24
74968;SHT30;63523;51.880;12.630;2023-07-29T02:57:55;18.15;86.22
74968;SHT30;63523;51.880;12.630;2023-07-29T03:00:21;18.12;86.11
74968;SHT30;63523;51.880;12.630;2023-07-29T03:02:46;18.08;86.02
74968;SHT30;63523;51.880;12.630;2023-07-29T03:05:11;18.07;85.84
74968;SHT30;63523;51.880;12.630;2023-07-29T03:07:36;18.00;85.76
74968;SHT30;63523;51.880;12.630;2023-07-29T03:10:02;17.96;85.70
74968;SHT30;63523;51.880;12.630;2023-07-29T03:12:27;17.90;85.69
74968;SHT30;63523;51.880;12.630;2023-07-29T03:14:53;17.82;85.69
74968;SHT30;63523;51.880;12.630;2023-07-29T03:17:18;17.76;85.89
74968;SHT30;63523;51.880;12.630;2023-07-29T03:19:43;17.70;85.83
74968;SHT30;63523;51.880;12.630;2023-07-29T03:22:08;17.67;85.92
74968;SHT30;63523;51.880;12.630;2023-07-29T03:24:34;17.66;86.03
74968;SHT30;63523;51.880;12.630;2023-07-29T03:26:59;17.63;85.97
74968;SHT30;63523;51.880;12.630;2023-07-29T03:29:24;17.59;85.43
74968;SHT30;63523;51.880;12.630;2023-07-29T03:31:50;17.53;85.19
74968;SHT30;63523;51.880;12.630;2023-07-29T03:34:15;17.46;85.37
74968;SHT30;63523;51.880;12.630;2023-07-29T03:36:40;17.45;85.38
74968;SHT30;63523;51.880;12.630;2023-07-29T03:39:06;17.42;85.36
74968;SHT30;63523;51.880;12.630;2023-07-29T03:41:32;17.40;85.43
74968;SHT30;63523;51.880;12.630;2023-07-29T03:43:58;17.38;85.78
74968;SHT30;63523;51.880;12.630;2023-07-29T03:46:24;17.38;85.83
74968;SHT30;63523;51.880;12.630;2023-07-29T03:48:49;17.39;85.88
74968;SHT30;63523;51.880;12.630;2023-07-29T03:51:15;17.42;86.68
74968;SHT30;63523;51.880;12.630;2023-07-29T03:53:40;17.46;87.13
74968;SHT30;63523;51.880;12.630;2023-07-29T03:56:05;17.55;87.66
74968;SHT30;63523;51.880;12.630;2023-07-29T03:58:31;17.62;87.98
74968;SHT30;63523;51.880;12.630;2023-07-29T04:00:56;17.74;88.17
74968;SHT30;63523;51.880;12.630;2023-07-29T04:03:21;17.84;87.92
74968;SHT30;63523;51.880;12.630;2023-07-29T04:05:47;17.96;88.09
74968;SHT30;63523;51.880;12.630;2023-07-29T04:08:12;18.11;88.06
74968;SHT30;63523;51.880;12.630;2023-07-29T04:10:38;18.29;87.89
74968;SHT30;63523;51.880;12.630;2023-07-29T04:13:03;18.48;87.26
74968;SHT30;63523;51.880;12.630;2023-07-29T04:15:28;18.73;86.78
74968;SHT30;63523;51.880;12.630;2023-07-29T04:17:54;18.90;86.01
74968;SHT30;63523;51.880;12.630;2023-07-29T04:20:20;19.11;84.95
74968;SHT30;63523;51.880;12.630;2023-07-29T04:22:45;19.18;84.46
74968;SHT30;63523;51.880;12.630;2023-07-29T04:27:38;19.28;84.36
74968;SHT30;63523;51.880;12.630;2023-07-29T04:30:03;19.34;84.25
74968;SHT30;63523;51.880;12.630;2023-07-29T04:32:29;19.38;84.27
74968;SHT30;63523;51.880;12.630;2023-07-29T04:34:54;19.48;83.94
74968;SHT30;63523;51.880;12.630;2023-07-29T04:37:19;19.62;83.73
74968;SHT30;63523;51.880;12.630;2023-07-29T04:39:44;19.70;83.10
74968;SHT30;63523;51.880;12.630;2023-07-29T04:42:10;19.77;82.98
74968;SHT30;63523;51.880;12.630;2023-07-29T04:44:35;19.84;83.01
74968;SHT30;63523;51.880;12.630;2023-07-29T04:47:02;19.90;82.42
74968;SHT30;63523;51.880;12.630;2023-07-29T04:49:27;19.93;82.29
74968;SHT30;63523;51.880;12.630;2023-07-29T04:51:52;19.94;82.30
74968;SHT30;63523;51.880;12.630;2023-07-29T04:54:17;19.94;82.42
74968;SHT30;63523;51.880;12.630;2023-07-29T04:56:45;19.98;82.63
74968;SHT30;63523;51.880;12.630;2023-07-29T04:59:11;20.04;82.37
74968;SHT30;63523;51.880;12.630;2023-07-29T05:01:38;20.11;82.24
74968;SHT30;63523;51.880;12.630;2023-07-29T05:04:03;20.15;81.83
74968;SHT30;63523;51.880;12.630;2023-07-29T05:06:29;20.24;81.52
74968;SHT30;63523;51.880;12.630;2023-07-29T05:08:54;20.34;81.34
74968;SHT30;63523;51.880;12.630;2023-07-29T05:11:19;20.51;80.93
74968;SHT30;63523;51.880;12.630;2023-07-29T05:13:45;20.66;80.35
74968;SHT30;63523;51.880;12.630;2023-07-29T05:16:10;20.83;79.59
74968;SHT30;63523;51.880;12.630;2023-07-29T05:18:35;21.01;79.33
74968;SHT30;63523;51.880;12.630;2023-07-29T05:21:01;21.24;79.06
74968;SHT30;63523;51.880;12.630;2023-07-29T05:23:26;21.39;78.45
74968;SHT30;63523;51.880;12.630;2023-07-29T05:25:51;21.51;77.99
74968;SHT30;63523;51.880;12.630;2023-07-29T05:28:16;21.56;77.66
74968;SHT30;63523;51.880;12.630;2023-07-29T05:30:44;21.56;77.31
74968;SHT30;63523;51.880;12.630;2023-07-29T05:33:09;21.48;77.73
74968;SHT30;63523;51.880;12.630;2023-07-29T05:35:34;21.52;77.59
74968;SHT30;63523;51.880;12.630;2023-07-29T05:38:00;21.45;77.78
74968;SHT30;63523;51.880;12.630;2023-07-29T05:40:25;21.46;78.10
74968;SHT30;63523;51.880;12.630;2023-07-29T05:42:50;21.48;78.26
74968;SHT30;63523;51.880;12.630;2023-07-29T05:45:16;21.53;78.23
74968;SHT30;63523;51.880;12.630;2023-07-29T05:47:41;21.56;77.52
74968;SHT30;63523;51.880;12.630;2023-07-29T05:50:07;21.59;77.35
74968;SHT30;63523;51.880;12.630;2023-07-29T05:52:33;21.73;77.38
74968;SHT30;63523;51.880;12.630;2023-07-29T05:54:58;21.82;76.61
74968;SHT30;63523;51.880;12.630;2023-07-29T05:57:24;21.86;76.28
74968;SHT30;63523;51.880;12.630;2023-07-29T05:59:49;21.87;76.09
74968;SHT30;63523;51.880;12.630;2023-07-29T06:02:14;21.86;76.33
74968;SHT30;63523;51.880;12.630;2023-07-29T06:04:40;21.86;76.10
74968;SHT30;63523;51.880;12.630;2023-07-29T06:07:06;21.90;75.87
74968;SHT30;63523;51.880;12.630;2023-07-29T06:09:31;22.00;75.66
74968;SHT30;63523;51.880;12.630;2023-07-29T06:11:57;22.06;75.51
74968;SHT30;63523;51.880;12.630;2023-07-29T06:14:22;22.20;75.26
74968;SHT30;63523;51.880;12.630;2023-07-29T06:16:47;22.25;75.10
74968;SHT30;63523;51.880;12.630;2023-07-29T06:19:13;22.28;74.87
74968;SHT30;63523;51.880;12.630;2023-07-29T06:21:38;22.32;74.77
74968;SHT30;63523;51.880;12.630;2023-07-29T06:24:04;22.38;74.74
74968;SHT30;63523;51.880;12.630;2023-07-29T06:26:29;22.37;74.89
74968;SHT30;63523;51.880;12.630;2023-07-29T06:28:54;22.34;74.84
74968;SHT30;63523;51.880;12.630;2023-07-29T06:31:20;22.38;74.53
74968;SHT30;63523;51.880;12.630;2023-07-29T06:33:46;22.44;74.23
74968;SHT30;63523;51.880;12.630;2023-07-29T06:36:11;22.48;74.27
74968;SHT30;63523;51.880;12.630;2023-07-29T06:38:36;22.58;73.56
74968;SHT30;63523;51.880;12.630;2023-07-29T06:41:03;22.69;72.75
74968;SHT30;63523;51.880;12.630;2023-07-29T06:43:29;22.72;72.98
74968;SHT30;63523;51.880;12.630;2023-07-29T06:45:54;22.68;72.21
74968;SHT30;63523;51.880;12.630;2023-07-29T06:48:20;22.68;72.88
74968;SHT30;63523;51.880;12.630;2023-07-29T06:50:46;22.80;72.60
74968;SHT30;63523;51.880;12.630;2023-07-29T06:53:11;22.87;71.75
74968;SHT30;63523;51.880;12.630;2023-07-29T06:55:37;22.93;72.49
74968;SHT30;63523;51.880;12.630;2023-07-29T06:58:05;22.95;71.97
74968;SHT30;63523;51.880;12.630;2023-07-29T07:00:38;22.93;71.61
74968;SHT30;63523;51.880;12.630;2023-07-29T07:03:06;23.00;71.27
74968;SHT30;63523;51.880;12.630;2023-07-29T07:05:38;22.95;71.27
74968;SHT30;63523;51.880;12.630;2023-07-29T07:08:14;22.95;71.13
74968;SHT30;63523;51.880;12.630;2023-07-29T07:10:48;22.89;71.25
74968;SHT30;63523;51.880;12.630;2023-07-29T07:13:14;22.95;70.25
74968;SHT30;63523;51.880;12.630;2023-07-29T07:15:44;22.95;70.81
74968;SHT30;63523;51.880;12.630;2023-07-29T07:18:10;23.13;71.53
74968;SHT30;63523;51.880;12.630;2023-07-29T07:20:35;23.42;70.66
74968;SHT30;63523;51.880;12.630;2023-07-29T07:23:08;23.70;68.65
74968;SHT30;63523;51.880;12.630;2023-07-29T07:25:37;23.83;68.08
74968;SHT30;63523;51.880;12.630;2023-07-29T07:28:02;24.00;67.60
74968;SHT30;63523;51.880;12.630;2023-07-29T07:30:28;24.13;66.19
74968;SHT30;63523;51.880;12.630;2023-07-29T07:32:53;24.13;67.05
74968;SHT30;63523;51.880;12.630;2023-07-29T07:35:18;24.18;67.45
74968;SHT30;63523;51.880;12.630;2023-07-29T07:37:44;24.17;67.61
74968;SHT30;63523;51.880;12.630;2023-07-29T07:40:10;24.11;68.54
74968;SHT30;63523;51.880;12.630;2023-07-29T07:42:35;24.16;68.07
74968;SHT30;63523;51.880;12.630;2023-07-29T07:45:03;24.07;66.84
74968;SHT30;63523;51.880;12.630;2023-07-29T07:47:29;24.16;66.86
74968;SHT30;63523;51.880;12.630;2023-07-29T07:49:54;24.21;67.79
74968;SHT30;63523;51.880;12.630;2023-07-29T07:52:19;24.25;66.30
74968;SHT30;63523;51.880;12.630;2023-07-29T07:54:45;24.28;65.90
74968;SHT30;63523;51.880;12.630;2023-07-29T07:57:13;24.44;66.13
74968;SHT30;63523;51.880;12.630;2023-07-29T07:59:38;24.55;65.17
74968;SHT30;63523;51.880;12.630;2023-07-29T08:02:03;24.69;65.42
74968;SHT30;63523;51.880;12.630;2023-07-29T08:04:29;24.94;65.47
74968;SHT30;63523;51.880;12.630;2023-07-29T08:06:54;25.13;64.52
74968;SHT30;63523;51.880;12.630;2023-07-29T08:09:19;25.13;63.75
74968;SHT30;63523;51.880;12.630;2023-07-29T08:11:53;25.19;63.41
74968;SHT30;63523;51.880;12.630;2023-07-29T08:14:22;25.14;63.10
74968;SHT30;63523;51.880;12.630;2023-07-29T08:16:47;25.07;63.09
74968;SHT30;63523;51.880;12.630;2023-07-29T08:19:12;25.09;63.16
74968;SHT30;63523;51.880;12.630;2023-07-29T08:21:38;25.10;62.72
74968;SHT30;63523;51.880;12.630;2023-07-29T08:24:03;25.07;62.84
74968;SHT30;63523;51.880;12.630;2023-07-29T08:26:29;25.07;63.67
74968;SHT30;63523;51.880;12.630;2023-07-29T08:28:54;25.13;63.26
74968;SHT30;63523;51.880;12.630;2023-07-29T08:31:20;25.11;62.65
74968;SHT30;63523;51.880;12.630;2023-07-29T08:37:18;25.21;63.01
74968;SHT30;63523;51.880;12.630;2023-07-29T08:39:43;25.27;62.50
74968;SHT30;63523;51.880;12.630;2023-07-29T08:42:11;25.39;63.48
74968;SHT30;63523;51.880;12.630;2023-07-29T08:44:41;25.49;62.33
74968;SHT30;63523;51.880;12.630;2023-07-29T08:47:07;25.76;62.26
74968;SHT30;63523;51.880;12.630;2023-07-29T08:49:33;26.00;61.62
74968;SHT30;63523;51.880;12.630;2023-07-29T08:51:59;26.16;61.66
74968;SHT30;63523;51.880;12.630;2023-07-29T08:54:25;26.30;60.70
74968;SHT30;63523;51.880;12.630;2023-07-29T08:56:50;26.24;59.54
74968;SHT30;63523;51.880;12.630;2023-07-29T08:59:16;26.27;59.74
74968;SHT30;63523;51.880;12.630;2023-07-29T09:01:43;26.21;60.29
74968;SHT30;63523;51.880;12.630;2023-07-29T09:04:08;26.17;59.39
74968;SHT30;63523;51.880;12.630;2023-07-29T09:06:35;26.16;58.98
74968;SHT30;63523;51.880;12.630;2023-07-29T09:09:00;26.21;59.59
74968;SHT30;63523;51.880;12.630;2023-07-29T09:11:26;26.04;59.53
74968;SHT30;63523;51.880;12.630;2023-07-29T09:13:52;26.06;60.29
74968;SHT30;63523;51.880;12.630;2023-07-29T09:16:19;25.93;59.35
74968;SHT30;63523;51.880;12.630;2023-07-29T09:18:47;25.88;58.96
74968;SHT30;63523;51.880;12.630;2023-07-29T09:21:15;26.12;59.32
74968;SHT30;63523;51.880;12.630;2023-07-29T09:23:41;26.14;60.21
74968;SHT30;63523;51.880;12.630;2023-07-29T09:26:07;26.10;59.81
74968;SHT30;63523;51.880;12.630;2023-07-29T09:28:37;25.85;59.96
74968;SHT30;63523;51.880;12.630;2023-07-29T09:31:03;25.69;60.69
74968;SHT30;63523;51.880;12.630;2023-07-29T09:33:30;25.59;61.65
74968;SHT30;63523;51.880;12.630;2023-07-29T09:36:00;25.41;61.19
74968;SHT30;63523;51.880;12.630;2023-07-29T09:38:28;25.13;62.09
74968;SHT30;63523;51.880;12.630;2023-07-29T09:40:56;24.94;63.20
74968;SHT30;63523;51.880;12.630;2023-07-29T09:43:29;24.90;62.62
74968;SHT30;63523;51.880;12.630;2023-07-29T09:45:54;24.92;63.54
74968;SHT30;63523;51.880;12.630;2023-07-29T09:48:23;24.86;62.62
74968;SHT30;63523;51.880;12.630;2023-07-29T09:50:48;24.86;64.38
74968;SHT30;63523;51.880;12.630;2023-07-29T09:53:14;24.96;62.80
74968;SHT30;63523;51.880;12.630;2023-07-29T09:55:39;24.97;61.49
74968;SHT30;63523;51.880;12.630;2023-07-29T09:58:05;25.13;62.33
74968;SHT30;63523;51.880;12.630;2023-07-29T10:00:33;25.24;61.86
74968;SHT30;63523;51.880;12.630;2023-07-29T10:03:00;25.07;62.21
74968;SHT30;63523;51.880;12.630;2023-07-29T10:05:26;25.04;63.11
74968;SHT30;63523;51.880;12.630;2023-07-29T10:07:53;24.87;63.29
74968;SHT30;63523;51.880;12.630;2023-07-29T10:10:19;24.68;63.45
74968;SHT30;63523;51.880;12.630;2023-07-29T10:12:45;24.51;64.63
74968;SHT30;63523;51.880;12.630;2023-07-29T10:15:11;24.41;64.24
74968;SHT30;63523;51.880;12.630;2023-07-29T10:17:37;24.32;65.70
74968;SHT30;63523;51.880;12.630;2023-07-29T10:20:04;24.31;65.72
74968;SHT30;63523;51.880;12.630;2023-07-29T10:22:36;24.28;65.01
74968;SHT30;63523;51.880;12.630;2023-07-29T10:25:09;24.31;65.52
74968;SHT30;63523;51.880;12.630;2023-07-29T10:30:11;24.48;66.30
74968;SHT30;63523;51.880;12.630;2023-07-29T10:32:38;24.55;66.20
74968;SHT30;63523;51.880;12.630;2023-07-29T10:35:04;24.71;66.22
74968;SHT30;63523;51.880;12.630;2023-07-29T10:37:29;24.72;65.27
74968;SHT30;63523;51.880;12.630;2023-07-29T10:39:55;24.58;65.31
74968;SHT30;63523;51.880;12.630;2023-07-29T10:42:21;24.40;66.33
74968;SHT30;63523;51.880;12.630;2023-07-29T10:44:52;24.18;66.94
74968;SHT30;63523;51.880;12.630;2023-07-29T10:47:27;23.93;68.53
74968;SHT30;63523;51.880;12.630;2023-07-29T10:49:56;23.55;73.05
74968;SHT30;63523;51.880;12.630;2023-07-29T10:52:49;22.55;77.00
74968;SHT30;63523;51.880;12.630;2023-07-29T10:55:26;21.63;79.65
74968;SHT30;63523;51.880;12.630;2023-07-29T10:57:51;20.84;80.35
74968;SHT30;63523;51.880;12.630;2023-07-29T11:00:19;20.24;81.21
74968;SHT30;63523;51.880;12.630;2023-07-29T11:03:00;19.65;82.22
74968;SHT30;63523;51.880;12.630;2023-07-29T11:05:27;19.45;83.96
74968;SHT30;63523;51.880;12.630;2023-07-29T11:08:16;19.28;84.80
74968;SHT30;63523;51.880;12.630;2023-07-29T11:10:43;19.45;85.53
74968;SHT30;63523;51.880;12.630;2023-07-29T11:13:09;19.61;86.38
74968;SHT30;63523;51.880;12.630;2023-07-29T11:15:38;19.51;86.00
74968;SHT30;63523;51.880;12.630;2023-07-29T11:18:04;19.34;84.94
74968;SHT30;63523;51.880;12.630;2023-07-29T11:20:33;19.03;85.52
74968;SHT30;63523;51.880;12.630;2023-07-29T11:23:03;18.96;85.52
74968;SHT30;63523;51.880;12.630;2023-07-29T11:25:30;18.93;86.45
74968;SHT30;63523;51.880;12.630;2023-07-29T11:27:57;18.86;86.16
74968;SHT30;63523;51.880;12.630;2023-07-29T11:30:23;18.81;86.36
74968;SHT30;63523;51.880;12.630;2023-07-29T11:32:53;18.74;86.18
74968;SHT30;63523;51.880;12.630;2023-07-29T11:35:18;18.79;86.48
74968;SHT30;63523;51.880;12.630;2023-07-29T11:37:47;18.86;86.35
74968;SHT30;63523;51.880;12.630;2023-07-29T11:40:21;18.99;86.63
74968;SHT30;63523;51.880;12.630;2023-07-29T11:42:47;19.32;87.47
74968;SHT30;63523;51.880;12.630;2023-07-29T11:45:14;19.74;86.68
74968;SHT30;63523;51.880;12.630;2023-07-29T11:47:39;20.11;87.70
74968;SHT30;63523;51.880;12.630;2023-07-29T11:50:08;20.49;87.24
74968;SHT30;63523;51.880;12.630;2023-07-29T11:52:41;20.55;85.28
74968;SHT30;63523;51.880;12.630;2023-07-29T11:55:07;20.45;84.87
74968;SHT30;63523;51.880;12.630;2023-07-29T11:57:35;20.34;84.35
74968;SHT30;63523;51.880;12.630;2023-07-29T12:00:06;20.26;85.44
74968;SHT30;63523;51.880;12.630;2023-07-29T12:02:32;20.32;85.44
74968;SHT30;63523;51.880;12.630;2023-07-29T12:04:58;20.34;85.71
74968;SHT30;63523;51.880;12.630;2023-07-29T12:07:23;20.46;86.17
74968;SHT30;63523;51.880;12.630;2023-07-29T12:09:50;20.65;85.61
74968;SHT30;63523;51.880;12.630;2023-07-29T12:12:15;20.77;84.30
74968;SHT30;63523;51.880;12.630;2023-07-29T12:14:44;20.79;84.44
74968;SHT30;63523;51.880;12.630;2023-07-29T12:17:10;20.94;84.74
74968;SHT30;63523;51.880;12.630;2023-07-29T12:19:38;21.20;84.38
74968;SHT30;63523;51.880;12.630;2023-07-29T12:22:05;21.28;83.33
74968;SHT30;63523;51.880;12.630;2023-07-29T12:24:31;21.18;82.68
74968;SHT30;63523;51.880;12.630;2023-07-29T12:26:58;21.23;83.57
74968;SHT30;63523;51.880;12.630;2023-07-29T12:29:23;21.24;83.87
74968;SHT30;63523;51.880;12.630;2023-07-29T12:31:53;21.37;84.45
74968;SHT30;63523;51.880;12.630;2023-07-29T12:34:21;21.51;84.77
74968;SHT30;63523;51.880;12.630;2023-07-29T12:36:49;21.75;84.91
74968;SHT30;63523;51.880;12.630;2023-07-29T12:39:32;21.86;83.97
74968;SHT30;63523;51.880;12.630;2023-07-29T12:42:00;21.85;83.78
74968;SHT30;63523;51.880;12.630;2023-07-29T12:44:30;21.83;83.60
74968;SHT30;63523;51.880;12.630;2023-07-29T12:46:55;21.98;84.13
74968;SHT30;63523;51.880;12.630;2023-07-29T12:49:21;21.98;83.35
74968;SHT30;63523;51.880;12.630;2023-07-29T12:51:47;21.83;82.24
74968;SHT30;63523;51.880;12.630;2023-07-29T12:54:13;21.58;82.26
74968;SHT30;63523;51.880;12.630;2023-07-29T12:56:38;21.49;83.17
74968;SHT30;63523;51.880;12.630;2023-07-29T12:59:04;21.55;82.79
74968;SHT30;63523;51.880;12.630;2023-07-29T13:01:30;21.41;81.67
74968;SHT30;63523;51.880;12.630;2023-07-29T13:03:55;21.35;83.02
74968;SHT30;63523;51.880;12.630;2023-07-29T13:06:22;21.46;83.52
74968;SHT30;63523;51.880;12.630;2023-07-29T13:08:47;21.52;82.22
74968;SHT30;63523;51.880;12.630;2023-07-29T13:11:14;21.46;82.30
74968;SHT30;63523;51.880;12.630;2023-07-29T13:13:39;21.41;82.58
74968;SHT30;63523;51.880;12.630;2023-07-29T13:16:04;21.45;83.84
74968;SHT30;63523;51.880;12.630;2023-07-29T13:18:31;21.51;83.67
74968;SHT30;63523;51.880;12.630;2023-07-29T13:20:56;21.56;82.50
74968;SHT30;63523;51.880;12.630;2023-07-29T13:23:22;21.63;83.44
74968;SHT30;63523;51.880;12.630;2023-07-29T13:25:47;21.66;82.75
74968;SHT30;63523;51.880;12.630;2023-07-29T13:28:13;21.78;82.41
74968;SHT30;63523;51.880;12.630;2023-07-29T13:30:39;21.90;82.29
74968;SHT30;63523;51.880;12.630;2023-07-29T13:33:04;22.03;82.51
74968;SHT30;63523;51.880;12.630;2023-07-29T13:35:30;22.11;82.26
74968;SHT30;63523;51.880;12.630;2023-07-29T13:37:55;22.14;81.96
74968;SHT30;63523;51.880;12.630;2023-07-29T13:40:21;22.20;80.96
74968;SHT30;63523;51.880;12.630;2023-07-29T13:42:46;22.10;81.09
74968;SHT30;63523;51.880;12.630;2023-07-29T13:45:12;22.00;80.36
74968;SHT30;63523;51.880;12.630;2023-07-29T13:47:37;21.92;81.58
74968;SHT30;63523;51.880;12.630;2023-07-29T13:50:03;21.87;82.40
74968;SHT30;63523;51.880;12.630;2023-07-29T13:52:28;21.78;81.37
74968;SHT30;63523;51.880;12.630;2023-07-29T13:54:54;21.78;82.05
74968;SHT30;63523;51.880;12.630;2023-07-29T13:57:19;21.67;81.39
74968;SHT30;63523;51.880;12.630;2023-07-29T13:59:44;21.63;81.98
74968;SHT30;63523;51.880;12.630;2023-07-29T14:02:10;21.59;82.34
74968;SHT30;63523;51.880;12.630;2023-07-29T14:04:35;21.51;81.86
74968;SHT30;63523;51.880;12.630;2023-07-29T14:07:00;21.49;82.96
74968;SHT30;63523;51.880;12.630;2023-07-29T14:09:26;21.53;83.47
74968;SHT30;63523;51.880;12.630;2023-07-29T14:11:53;21.46;82.92
74968;SHT30;63523;51.880;12.630;2023-07-29T14:14:18;21.43;83.74
74968;SHT30;63523;51.880;12.630;2023-07-29T14:16:44;21.45;83.85
74968;SHT30;63523;51.880;12.630;2023-07-29T14:19:09;21.45;83.28
74968;SHT30;63523;51.880;12.630;2023-07-29T14:21:34;21.46;83.40
74968;SHT30;63523;51.880;12.630;2023-07-29T14:24:00;21.55;83.39
74968;SHT30;63523;51.880;12.630;2023-07-29T14:26:25;21.63;83.07
74968;SHT30;63523;51.880;12.630;2023-07-29T14:28:50;21.70;83.51
74968;SHT30;63523;51.880;12.630;2023-07-29T14:31:16;21.80;83.59
74968;SHT30;63523;51.880;12.630;2023-07-29T14:33:42;21.93;83.71
74968;SHT30;63523;51.880;12.630;2023-07-29T14:36:08;21.98;83.54
74968;SHT30;63523;51.880;12.630;2023-07-29T14:38:34;22.01;82.78
74968;SHT30;63523;51.880;12.630;2023-07-29T14:40:59;22.07;83.08
74968;SHT30;63523;51.880;12.630;2023-07-29T14:43:25;22.10;81.80
74968;SHT30;63523;51.880;12.630;2023-07-29T14:45:50;22.11;82.51
74968;SHT30;63523;51.880;12.630;2023-07-29T14:48:15;22.07;82.56
74968;SHT30;63523;51.880;12.630;2023-07-29T14:50:41;21.97;81.25
74968;SHT30;63523;51.880;12.630;2023-07-29T14:53:07;21.73;82.07
74968;SHT30;63523;51.880;12.630;2023-07-29T14:55:33;21.59;82.87
74968;SHT30;63523;51.880;12.630;2023-07-29T14:57:58;21.31;82.76
74968;SHT30;63523;51.880;12.630;2023-07-29T15:00:23;21.14;83.47
74968;SHT30;63523;51.880;12.630;2023-07-29T15:02:49;21.00;84.16
74968;SHT30;63523;51.880;12.630;2023-07-29T15:05:14;20.91;85.30
74968;SHT30;63523;51.880;12.630;2023-07-29T15:07:39;20.80;83.83
74968;SHT30;63523;51.880;12.630;2023-07-29T15:10:05;20.77;85.50
74968;SHT30;63523;51.880;12.630;2023-07-29T15:12:30;20.72;85.70
74968;SHT30;63523;51.880;12.630;2023-07-29T15:14:56;20.75;85.76
74968;SHT30;63523;51.880;12.630;2023-07-29T15:17:21;20.63;85.01
74968;SHT30;63523;51.880;12.630;2023-07-29T15:19:46;20.57;85.64
74968;SHT30;63523;51.880;12.630;2023-07-29T15:22:15;20.59;85.53
74968;SHT30;63523;51.880;12.630;2023-07-29T15:24:40;20.52;85.00
74968;SHT30;63523;51.880;12.630;2023-07-29T15:27:08;20.46;85.32